Time;durP1;ratioP1;P1;durP2;ratioP2;P2;SDS_P1;SDS_P2;PMS_P1;PMS_P2;Temp;Humidity;BMP_temperature;BMP_pressure;BME280_temperature;BME280_humidity;BME280_pressure;Samples;Min_cycle;Max_cycle;Signal;HPM_P1;HPM_P2
2022/08/01 00:00:24;;;;;;;3.60;3.40;;;;;;;;;;5077104;28;24781;-45
2022/08/01 00:02:49;;;;;;;3.50;3.30;;;;;;;;;;5074841;28;24433;-45
2022/08/01 00:05:14;;;;;;;3.60;3.30;;;;;;;;;;5087108;28;24426;-45
2022/08/01 00:07:39;;;;;;;3.53;3.33;;;;;;;;;;5076575;28;24433;-45
2022/08/01 00:10:06;;;;;;;3.90;3.60;;;;;;;;;;5067380;28;24474;-45
2022/08/01 00:12:31;;;;;;;3.60;3.30;;;;;;;;;;5066928;28;24461;-46
2022/08/01 00:14:56;;;;;;;3.70;3.50;;;;;;;;;;5067387;28;24403;-44
2022/08/01 00:17:21;;;;;;;3.73;3.53;;;;;;;;;;5066885;28;24491;-46
2022/08/01 00:19:46;;;;;;;3.90;3.60;;;;;;;;;;5066760;28;24470;-46
2022/08/01 00:22:11;;;;;;;4.00;3.50;;;;;;;;;;5067155;28;24415;-46
2022/08/01 00:24:37;;;;;;;3.50;3.20;;;;;;;;;;5066837;28;24405;-44
2022/08/01 00:27:02;;;;;;;3.60;3.30;;;;;;;;;;5066105;28;24422;-45
2022/08/01 00:29:27;;;;;;;3.60;3.30;;;;;;;;;;5066896;28;24394;-44
2022/08/01 00:31:52;;;;;;;3.70;3.40;;;;;;;;;;5067200;28;24470;-46
2022/08/01 00:34:17;;;;;;;3.70;3.50;;;;;;;;;;5068204;28;24686;-46
2022/08/01 00:36:42;;;;;;;3.80;3.60;;;;;;;;;;5086718;28;24955;-46
2022/08/01 00:39:08;;;;;;;3.30;3.10;;;;;;;;;;5086885;28;24410;-44
2022/08/01 00:41:33;;;;;;;3.50;3.30;;;;;;;;;;5086830;28;24409;-45
2022/08/01 00:44:01;;;;;;;3.30;3.10;;;;;;;;;;5086864;28;24403;-46
2022/08/01 00:46:26;;;;;;;3.72;3.53;;;;;;;;;;5086199;28;24465;-47
2022/08/01 00:48:51;;;;;;;3.70;3.50;;;;;;;;;;5078388;28;24426;-45
2022/08/01 00:51:17;;;;;;;3.50;3.20;;;;;;;;;;5066558;28;24375;-46
2022/08/01 00:53:42;;;;;;;3.50;3.20;;;;;;;;;;5066851;28;24436;-46
2022/08/01 00:56:07;;;;;;;3.83;3.53;;;;;;;;;;5066236;28;24406;-45
2022/08/01 00:58:33;;;;;;;4.07;3.77;;;;;;;;;;5066854;28;25008;-44
2022/08/01 01:00:58;;;;;;;3.50;3.30;;;;;;;;;;5070430;28;24406;-46
2022/08/01 01:03:24;;;;;;;3.70;3.40;;;;;;;;;;5084145;28;24445;-46
2022/08/01 01:05:56;;;;;;;3.63;3.33;;;;;;;;;;5075074;28;24433;-46
2022/08/01 01:08:24;;;;;;;3.50;3.30;;;;;;;;;;5088039;28;24519;-45
2022/08/01 01:10:54;;;;;;;3.97;3.67;;;;;;;;;;5076508;28;25111;-47
2022/08/01 01:13:31;;;;;;;4.10;3.80;;;;;;;;;;5080024;28;24405;-46
2022/08/01 01:16:01;;;;;;;4.30;4.00;;;;;;;;;;5082614;28;24963;-45
2022/08/01 01:18:32;;;;;;;4.00;3.70;;;;;;;;;;5084458;28;24435;-46
2022/08/01 01:21:04;;;;;;;3.95;3.65;;;;;;;;;;5071609;28;24425;-44
2022/08/01 01:23:37;;;;;;;4.43;4.10;;;;;;;;;;5073329;28;24431;-45
2022/08/01 01:26:21;;;;;;;4.20;4.00;;;;;;;;;;5072813;28;24433;-44
2022/08/01 01:29:05;;;;;;;3.80;3.60;;;;;;;;;;5082551;28;25159;-45
2022/08/01 01:31:32;;;;;;;4.15;3.85;;;;;;;;;;5069790;28;24992;-45
2022/08/01 01:33:58;;;;;;;4.10;3.80;;;;;;;;;;5085182;28;24461;-46
2022/08/01 01:36:25;;;;;;;3.72;3.53;;;;;;;;;;5082287;28;24478;-44
2022/08/01 01:38:51;;;;;;;4.10;3.90;;;;;;;;;;5083630;28;24419;-44
2022/08/01 01:41:17;;;;;;;4.20;3.90;;;;;;;;;;5088901;28;25024;-45
2022/08/01 01:43:42;;;;;;;4.40;4.00;;;;;;;;;;5090125;28;24398;-46
2022/08/01 01:46:09;;;;;;;3.50;3.30;;;;;;;;;;5080639;28;24777;-45
2022/08/01 01:48:35;;;;;;;3.70;3.40;;;;;;;;;;5089571;28;24986;-45
2022/08/01 01:51:00;;;;;;;4.40;4.10;;;;;;;;;;5074744;28;24531;-46
2022/08/01 01:53:26;;;;;;;4.20;3.90;;;;;;;;;;5069754;28;24403;-44
2022/08/01 01:55:53;;;;;;;3.83;3.53;;;;;;;;;;5082588;28;24422;-45
2022/08/01 01:58:20;;;;;;;4.25;3.95;;;;;;;;;;5087040;28;24932;-45
2022/08/01 02:00:46;;;;;;;4.30;3.70;;;;;;;;;;5076629;28;24423;-45
2022/08/01 02:03:12;;;;;;;4.35;4.05;;;;;;;;;;5068759;28;24463;-45
2022/08/01 02:05:38;;;;;;;4.07;3.88;;;;;;;;;;5078056;28;25234;-45
2022/08/01 02:08:04;;;;;;;4.28;3.88;;;;;;;;;;5082812;28;24864;-45
2022/08/01 02:10:30;;;;;;;4.03;3.72;;;;;;;;;;5077101;28;25040;-46
2022/08/01 02:12:57;;;;;;;3.85;3.53;;;;;;;;;;5087668;28;25109;-44
2022/08/01 02:15:22;;;;;;;4.00;3.70;;;;;;;;;;5083622;28;24414;-46
2022/08/01 02:17:49;;;;;;;4.00;3.70;;;;;;;;;;5068351;28;25235;-45
2022/08/01 02:20:15;;;;;;;3.63;3.30;;;;;;;;;;5068540;28;24501;-45
2022/08/01 02:22:42;;;;;;;4.33;4.03;;;;;;;;;;5068953;28;24501;-46
2022/08/01 02:25:07;;;;;;;4.88;4.50;;;;;;;;;;5068933;28;25091;-45
2022/08/01 02:27:43;;;;;;;4.43;4.03;;;;;;;;;;5068419;28;24522;-45
2022/08/01 02:30:10;;;;;;;4.40;4.10;;;;;;;;;;5069289;28;24431;-45
2022/08/01 02:32:39;;;;;;;4.10;3.80;;;;;;;;;;5078934;28;24402;-45
2022/08/01 02:35:07;;;;;;;4.25;3.95;;;;;;;;;;5088848;28;24441;-46
2022/08/01 02:37:33;;;;;;;4.60;4.20;;;;;;;;;;5089667;28;24491;-45
2022/08/01 02:39:59;;;;;;;3.92;3.63;;;;;;;;;;5088873;28;24939;-44
2022/08/01 02:42:26;;;;;;;4.05;3.75;;;;;;;;;;5088474;28;24399;-46
2022/08/01 02:44:51;;;;;;;3.60;3.40;;;;;;;;;;5075516;28;24975;-45
2022/08/01 02:47:19;;;;;;;3.90;3.70;;;;;;;;;;5067442;28;24447;-45
2022/08/01 02:49:46;;;;;;;4.25;3.85;;;;;;;;;;5075311;28;24782;-45
2022/08/01 02:52:12;;;;;;;4.90;4.50;;;;;;;;;;5081964;28;24426;-46
2022/08/01 02:54:38;;;;;;;4.60;4.30;;;;;;;;;;5067726;28;24418;-46
2022/08/01 02:57:05;;;;;;;4.10;3.90;;;;;;;;;;5079809;28;24781;-47
2022/08/01 02:59:31;;;;;;;3.97;3.70;;;;;;;;;;5078345;28;24536;-45
2022/08/01 03:01:57;;;;;;;4.07;3.78;;;;;;;;;;5085107;28;24514;-45
2022/08/01 03:04:22;;;;;;;3.95;3.75;;;;;;;;;;5081012;28;24587;-46
2022/08/01 03:06:48;;;;;;;4.67;4.37;;;;;;;;;;5080454;28;24431;-45
2022/08/01 03:09:14;;;;;;;4.40;4.10;;;;;;;;;;5082439;28;24981;-45
2022/08/01 03:11:41;;;;;;;4.95;4.25;;;;;;;;;;5072695;28;24514;-45
2022/08/01 03:14:07;;;;;;;4.10;3.80;;;;;;;;;;5086005;28;24419;-44
2022/08/01 03:16:33;;;;;;;4.40;4.00;;;;;;;;;;5077087;28;24500;-46
2022/08/01 03:19:00;;;;;;;4.80;4.40;;;;;;;;;;5077717;28;24422;-45
2022/08/01 03:21:26;;;;;;;4.20;3.90;;;;;;;;;;5082292;28;24428;-46
2022/08/01 03:23:56;;;;;;;4.10;3.80;;;;;;;;;;5080698;28;24418;-44
2022/08/01 03:26:22;;;;;;;4.47;4.13;;;;;;;;;;5077822;28;24528;-46
2022/08/01 03:28:48;;;;;;;4.30;4.00;;;;;;;;;;5079740;28;24503;-46
2022/08/01 03:31:13;;;;;;;4.40;4.10;;;;;;;;;;5084093;28;25031;-46
2022/08/01 03:33:39;;;;;;;4.60;4.20;;;;;;;;;;5087042;28;24395;-44
2022/08/01 03:36:04;;;;;;;4.40;4.10;;;;;;;;;;5067318;28;24984;-45
2022/08/01 03:38:30;;;;;;;4.28;3.97;;;;;;;;;;5080308;28;24979;-46
2022/08/01 03:40:58;;;;;;;4.80;4.40;;;;;;;;;;5068867;28;24407;-46
2022/08/01 03:43:30;;;;;;;5.17;4.80;;;;;;;;;;5069290;28;24411;-46
2022/08/01 03:45:58;;;;;;;4.95;4.65;;;;;;;;;;5068817;28;25029;-46
2022/08/01 03:48:29;;;;;;;4.68;4.38;;;;;;;;;;5080061;28;24454;-45
2022/08/01 03:50:55;;;;;;;4.90;4.40;;;;;;;;;;5076862;28;24426;-44
2022/08/01 03:53:22;;;;;;;4.50;4.20;;;;;;;;;;5085623;28;24430;-44
2022/08/01 03:55:49;;;;;;;5.07;4.78;;;;;;;;;;5080726;28;24851;-45
2022/08/01 03:58:14;;;;;;;4.70;4.40;;;;;;;;;;5069544;28;24434;-46
2022/08/01 04:00:39;;;;;;;4.90;4.50;;;;;;;;;;5077512;28;24514;-45
2022/08/01 04:03:06;;;;;;;4.40;4.10;;;;;;;;;;5067005;28;24545;-44
2022/08/01 04:05:31;;;;;;;5.00;4.60;;;;;;;;;;5080593;28;24414;-44
2022/08/01 04:07:56;;;;;;;5.00;4.70;;;;;;;;;;5079229;28;24479;-45
2022/08/01 04:10:22;;;;;;;4.95;4.55;;;;;;;;;;5083485;28;25035;-44
2022/08/01 04:12:48;;;;;;;5.43;4.70;;;;;;;;;;5068131;28;24414;-45
2022/08/01 04:15:13;;;;;;;4.83;4.43;;;;;;;;;;5080151;28;24421;-44
2022/08/01 04:17:39;;;;;;;4.90;4.50;;;;;;;;;;5081783;28;24451;-45
2022/08/01 04:20:04;;;;;;;5.00;4.50;;;;;;;;;;5078303;28;24422;-44
2022/08/01 04:22:30;;;;;;;4.73;4.43;;;;;;;;;;5077069;28;24510;-46
2022/08/01 04:24:56;;;;;;;4.82;4.50;;;;;;;;;;5076055;28;24599;-45
2022/08/01 04:27:23;;;;;;;5.10;4.70;;;;;;;;;;5085448;28;24450;-45
2022/08/01 04:29:51;;;;;;;4.97;4.57;;;;;;;;;;5084699;28;24417;-46
2022/08/01 04:32:17;;;;;;;5.38;4.88;;;;;;;;;;5083266;28;24489;-46
2022/08/01 04:34:45;;;;;;;5.20;4.80;;;;;;;;;;5068074;28;24410;-45
2022/08/01 04:37:11;;;;;;;4.72;4.30;;;;;;;;;;5072599;28;24437;-45
2022/08/01 04:39:37;;;;;;;6.10;4.30;;;;;;;;;;5068940;28;24513;-46
2022/08/01 04:42:03;;;;;;;4.80;4.40;;;;;;;;;;5086233;28;24393;-47
2022/08/01 04:44:29;;;;;;;4.90;4.20;;;;;;;;;;5077947;28;24580;-46
2022/08/01 04:46:56;;;;;;;4.25;3.95;;;;;;;;;;5082944;28;24546;-45
2022/08/01 04:49:21;;;;;;;4.13;3.83;;;;;;;;;;5077527;28;24538;-45
2022/08/01 04:51:57;;;;;;;4.40;4.00;;;;;;;;;;5080016;28;24505;-46
2022/08/01 04:54:23;;;;;;;4.50;4.10;;;;;;;;;;5081429;28;24502;-46
2022/08/01 04:56:48;;;;;;;4.87;4.47;;;;;;;;;;5078992;28;24521;-46
2022/08/01 05:01:57;;;;;;;4.37;4.07;;;;;;;;;;5073444;28;24450;-46
2022/08/01 05:04:22;;;;;;;4.43;4.13;;;;;;;;;;5069201;28;24535;-46
2022/08/01 05:06:48;;;;;;;4.57;4.20;;;;;;;;;;5077498;28;24422;-45
2022/08/01 05:09:13;;;;;;;4.93;4.63;;;;;;;;;;5086055;28;24443;-44
2022/08/01 05:11:38;;;;;;;4.22;3.92;;;;;;;;;;5069043;28;24468;-45
2022/08/01 05:14:03;;;;;;;4.70;4.30;;;;;;;;;;5073260;28;24781;-45
2022/08/01 05:16:28;;;;;;;4.80;4.40;;;;;;;;;;5080080;28;24402;-45
2022/08/01 05:18:53;;;;;;;5.10;4.70;;;;;;;;;;5082092;28;24517;-45
2022/08/01 05:21:18;;;;;;;4.60;4.30;;;;;;;;;;5070339;28;24804;-45
2022/08/01 05:23:44;;;;;;;4.10;3.80;;;;;;;;;;5082105;28;24430;-45
2022/08/01 05:26:10;;;;;;;4.80;4.40;;;;;;;;;;5081943;28;24525;-45
2022/08/01 05:28:35;;;;;;;4.60;4.30;;;;;;;;;;5083265;28;24434;-45
2022/08/01 05:31:00;;;;;;;4.60;4.30;;;;;;;;;;5069210;28;24785;-45
2022/08/01 05:33:25;;;;;;;4.20;3.90;;;;;;;;;;5069339;28;25222;-46
2022/08/01 05:35:51;;;;;;;4.53;4.22;;;;;;;;;;5073880;28;24510;-45
2022/08/01 05:38:16;;;;;;;3.80;3.50;;;;;;;;;;5076428;28;24464;-45
2022/08/01 05:40:41;;;;;;;3.85;3.45;;;;;;;;;;5063432;28;24475;-45
2022/08/01 05:43:06;;;;;;;3.70;3.50;;;;;;;;;;5083463;28;24493;-45
2022/08/01 05:45:31;;;;;;;4.10;3.70;;;;;;;;;;5074529;28;24521;-45
2022/08/01 05:47:56;;;;;;;3.83;3.53;;;;;;;;;;5073087;28;24569;-45
2022/08/01 05:50:21;;;;;;;4.00;3.70;;;;;;;;;;5061567;28;24414;-46
2022/08/01 05:52:47;;;;;;;3.40;3.20;;;;;;;;;;5068054;28;24433;-45
2022/08/01 05:55:12;;;;;;;4.00;3.70;;;;;;;;;;5079071;28;24450;-46
2022/08/01 05:57:37;;;;;;;2.90;2.70;;;;;;;;;;5086690;28;24405;-46
2022/08/01 06:00:02;;;;;;;4.03;3.00;;;;;;;;;;5080696;28;24836;-45
2022/08/01 06:02:28;;;;;;;3.60;3.40;;;;;;;;;;5065572;28;24460;-45
2022/08/01 06:04:53;;;;;;;3.50;3.20;;;;;;;;;;5070627;28;24426;-45
2022/08/01 06:07:18;;;;;;;3.88;3.60;;;;;;;;;;5080498;28;25287;-45
2022/08/01 06:09:43;;;;;;;3.83;3.53;;;;;;;;;;5074229;28;24569;-45
2022/08/01 06:12:08;;;;;;;3.40;3.10;;;;;;;;;;5077367;28;25192;-45
2022/08/01 06:14:34;;;;;;;3.10;2.90;;;;;;;;;;5084708;28;24405;-45
2022/08/01 06:16:59;;;;;;;3.60;3.40;;;;;;;;;;5074442;28;24460;-45
2022/08/01 06:19:26;;;;;;;3.00;2.80;;;;;;;;;;5084595;28;24446;-45
2022/08/01 06:21:51;;;;;;;3.25;3.05;;;;;;;;;;5074874;28;24472;-44
2022/08/01 06:24:16;;;;;;;3.70;3.40;;;;;;;;;;5067781;28;25622;-44
2022/08/01 06:26:41;;;;;;;3.40;3.10;;;;;;;;;;5081281;28;24461;-44
2022/08/01 06:29:06;;;;;;;3.80;3.50;;;;;;;;;;5085814;28;24430;-45
2022/08/01 06:31:31;;;;;;;3.50;3.30;;;;;;;;;;5083457;28;24571;-45
2022/08/01 06:33:57;;;;;;;3.50;3.30;;;;;;;;;;5074462;28;24419;-44
2022/08/01 06:36:22;;;;;;;3.27;3.07;;;;;;;;;;5083644;28;24429;-45
2022/08/01 06:38:47;;;;;;;3.80;3.50;;;;;;;;;;5088836;28;25206;-44
2022/08/01 06:41:12;;;;;;;3.40;3.20;;;;;;;;;;5083833;28;24422;-46
2022/08/01 06:43:37;;;;;;;3.10;2.90;;;;;;;;;;5068455;28;24430;-45
2022/08/01 06:46:04;;;;;;;3.10;2.90;;;;;;;;;;5078969;28;24414;-45
2022/08/01 06:48:29;;;;;;;3.50;3.30;;;;;;;;;;5087884;28;24428;-45
2022/08/01 06:51:07;;;;;;;3.63;3.33;;;;;;;;;;5071590;28;24772;-45
2022/08/01 06:53:32;;;;;;;4.20;3.80;;;;;;;;;;5075477;28;24429;-46
2022/08/01 06:55:58;;;;;;;4.00;3.80;;;;;;;;;;5078651;28;24971;-45
2022/08/01 06:58:23;;;;;;;4.45;4.15;;;;;;;;;;5078920;28;24991;-45
2022/08/01 07:00:48;;;;;;;3.70;3.50;;;;;;;;;;5076403;28;24437;-45
2022/08/01 07:03:13;;;;;;;4.38;3.97;;;;;;;;;;5064878;28;24422;-45
2022/08/01 07:05:38;;;;;;;5.20;4.80;;;;;;;;;;5067969;28;24398;-45
2022/08/01 07:08:03;;;;;;;5.00;4.70;;;;;;;;;;5068037;28;24502;-46
2022/08/01 07:10:29;;;;;;;4.90;4.50;;;;;;;;;;5067944;28;24746;-45
2022/08/01 07:12:54;;;;;;;5.13;4.83;;;;;;;;;;5068123;28;24387;-45
2022/08/01 07:15:21;;;;;;;5.60;5.20;;;;;;;;;;5067346;28;24440;-45
2022/08/01 07:17:46;;;;;;;5.20;4.80;;;;;;;;;;5067710;28;24402;-45
2022/08/01 07:20:12;;;;;;;5.47;5.00;;;;;;;;;;5067905;28;24399;-46
2022/08/01 07:22:37;;;;;;;5.50;5.20;;;;;;;;;;5067390;28;24448;-47
2022/08/01 07:25:03;;;;;;;4.50;4.20;;;;;;;;;;5068968;28;24423;-46
2022/08/01 07:27:28;;;;;;;5.05;4.75;;;;;;;;;;5087708;28;24541;-45
2022/08/01 07:29:54;;;;;;;5.10;4.70;;;;;;;;;;5087554;28;24509;-45
2022/08/01 07:32:19;;;;;;;5.20;4.90;;;;;;;;;;5087838;28;24737;-46
2022/08/01 07:34:44;;;;;;;5.10;4.80;;;;;;;;;;5087512;28;24394;-47
2022/08/01 07:37:09;;;;;;;5.30;5.00;;;;;;;;;;5087565;28;24386;-44
2022/08/01 07:39:34;;;;;;;5.50;5.10;;;;;;;;;;5087196;28;24394;-45
2022/08/01 07:42:00;;;;;;;5.40;5.00;;;;;;;;;;5087665;28;24467;-44
2022/08/01 07:44:25;;;;;;;5.68;5.28;;;;;;;;;;5087684;28;24426;-46
2022/08/01 07:46:50;;;;;;;5.32;4.93;;;;;;;;;;5086989;28;24866;-45
2022/08/01 07:49:15;;;;;;;5.40;5.00;;;;;;;;;;5086908;28;24471;-45
2022/08/01 07:51:40;;;;;;;5.27;4.90;;;;;;;;;;5087590;28;24482;-44
2022/08/01 07:54:06;;;;;;;4.68;4.38;;;;;;;;;;5087103;28;24389;-45
2022/08/01 07:56:32;;;;;;;4.80;4.40;;;;;;;;;;5087559;28;25016;-45
2022/08/01 07:58:57;;;;;;;4.20;3.90;;;;;;;;;;5086780;28;24398;-45
2022/08/01 08:01:22;;;;;;;4.00;3.80;;;;;;;;;;5087063;28;24710;-45
2022/08/01 08:03:47;;;;;;;3.65;3.45;;;;;;;;;;5087366;28;24429;-45
2022/08/01 08:06:12;;;;;;;3.20;3.00;;;;;;;;;;5085474;28;24414;-45
2022/08/01 08:08:37;;;;;;;3.23;3.03;;;;;;;;;;5086996;28;25224;-46
2022/08/01 08:11:03;;;;;;;3.30;3.10;;;;;;;;;;5087028;28;24423;-45
2022/08/01 08:13:28;;;;;;;3.10;2.90;;;;;;;;;;5086909;28;24955;-46
2022/08/01 08:15:53;;;;;;;3.40;3.20;;;;;;;;;;5087087;28;24928;-45
2022/08/01 08:18:18;;;;;;;3.07;2.87;;;;;;;;;;5086380;28;24445;-46
2022/08/01 08:20:43;;;;;;;2.90;2.70;;;;;;;;;;5087386;28;24872;-45
2022/08/01 08:25:52;;;;;;;3.30;3.10;;;;;;;;;;5087070;28;24539;-45
2022/08/01 08:28:18;;;;;;;3.03;2.83;;;;;;;;;;5086339;28;24524;-46
2022/08/01 08:30:43;;;;;;;3.10;2.90;;;;;;;;;;5086269;28;25195;-46
2022/08/01 08:33:08;;;;;;;2.70;2.50;;;;;;;;;;5086894;28;24390;-45
2022/08/01 08:35:33;;;;;;;2.50;2.40;;;;;;;;;;5086810;28;24421;-45
2022/08/01 08:37:58;;;;;;;2.80;2.60;;;;;;;;;;5086991;28;24441;-46
2022/08/01 08:40:28;;;;;;;2.70;2.22;;;;;;;;;;5086458;28;24471;-45
2022/08/01 08:42:54;;;;;;;2.30;2.10;;;;;;;;;;5086346;28;24397;-46
2022/08/01 08:45:19;;;;;;;2.15;1.95;;;;;;;;;;5086844;28;24769;-45
2022/08/01 08:47:46;;;;;;;2.37;2.27;;;;;;;;;;5086203;28;24453;-46
2022/08/01 08:50:11;;;;;;;2.25;2.15;;;;;;;;;;5086337;28;24379;-45
2022/08/01 08:52:38;;;;;;;3.00;2.80;;;;;;;;;;5086783;28;24462;-45
2022/08/01 08:55:03;;;;;;;2.20;2.10;;;;;;;;;;5086280;28;24942;-45
2022/08/01 08:57:28;;;;;;;2.60;2.40;;;;;;;;;;5086351;28;24460;-46
2022/08/01 08:59:55;;;;;;;2.70;2.50;;;;;;;;;;5086433;28;24511;-45
2022/08/01 09:02:20;;;;;;;2.60;2.40;;;;;;;;;;5085994;28;24398;-45
2022/08/01 09:04:46;;;;;;;2.10;2.00;;;;;;;;;;5086742;28;24470;-45
2022/08/01 09:07:13;;;;;;;2.00;1.88;;;;;;;;;;5086384;28;24486;-46
2022/08/01 09:09:38;;;;;;;2.40;2.20;;;;;;;;;;5086218;28;24539;-46
2022/08/01 09:12:04;;;;;;;1.92;1.83;;;;;;;;;;5086609;28;24481;-45
2022/08/01 09:14:32;;;;;;;2.00;1.90;;;;;;;;;;5085870;28;24394;-45
2022/08/01 09:17:06;;;;;;;1.90;1.80;;;;;;;;;;5086253;28;24390;-46
2022/08/01 09:19:38;;;;;;;2.00;1.90;;;;;;;;;;5086426;28;24414;-46
2022/08/01 09:22:05;;;;;;;1.80;1.70;;;;;;;;;;5086752;28;24393;-45
2022/08/01 09:24:30;;;;;;;2.00;1.80;;;;;;;;;;5086438;28;24413;-46
2022/08/01 09:26:56;;;;;;;2.30;2.10;;;;;;;;;;5085755;28;24422;-45
2022/08/01 09:29:23;;;;;;;2.70;2.00;;;;;;;;;;5087176;28;25186;-51
2022/08/01 09:31:49;;;;;;;2.90;2.70;;;;;;;;;;5090248;28;24390;-46
2022/08/01 09:34:16;;;;;;;2.37;2.27;;;;;;;;;;5089883;28;24967;-46
2022/08/01 09:36:51;;;;;;;2.40;2.30;;;;;;;;;;5090559;28;24944;-46
2022/08/01 09:39:16;;;;;;;3.10;2.90;;;;;;;;;;5089715;28;24604;-46
2022/08/01 09:41:42;;;;;;;3.22;3.03;;;;;;;;;;5090013;28;25022;-46
2022/08/01 09:44:07;;;;;;;2.80;2.70;;;;;;;;;;5089895;28;24544;-46
2022/08/01 09:46:32;;;;;;;2.70;2.55;;;;;;;;;;5090271;28;24426;-46
2022/08/01 09:49:04;;;;;;;2.77;2.57;;;;;;;;;;5089352;28;24978;-45
2022/08/01 09:51:29;;;;;;;2.95;2.75;;;;;;;;;;5089215;28;24398;-45
2022/08/01 09:53:54;;;;;;;2.40;2.30;;;;;;;;;;5089887;28;24394;-45
2022/08/01 09:56:21;;;;;;;2.60;2.50;;;;;;;;;;5089322;28;24386;-45
2022/08/01 09:58:50;;;;;;;2.50;2.30;;;;;;;;;;5089361;28;24936;-46
2022/08/01 10:01:15;;;;;;;2.30;2.20;;;;;;;;;;5089549;28;25223;-45
2022/08/01 10:03:40;;;;;;;2.13;2.03;;;;;;;;;;5089572;28;24526;-45
2022/08/01 10:06:21;;;;;;;3.00;2.50;;;;;;;;;;5089617;28;24523;-44
2022/08/01 10:08:46;;;;;;;2.30;2.10;;;;;;;;;;5089169;28;24598;-45
2022/08/01 10:11:12;;;;;;;2.00;1.90;;;;;;;;;;5089088;28;24867;-45
2022/08/01 10:13:37;;;;;;;2.20;2.10;;;;;;;;;;5089341;28;24402;-45
2022/08/01 10:16:03;;;;;;;2.40;2.30;;;;;;;;;;5089184;28;24406;-46
2022/08/01 10:18:30;;;;;;;2.20;2.10;;;;;;;;;;5089531;28;24397;-46
2022/08/01 10:20:56;;;;;;;1.90;1.80;;;;;;;;;;5088576;28;24601;-46
2022/08/01 10:23:22;;;;;;;2.20;2.10;;;;;;;;;;5088646;28;24959;-45
2022/08/01 10:25:48;;;;;;;2.17;2.00;;;;;;;;;;5089400;28;24414;-45
2022/08/01 10:28:15;;;;;;;2.30;2.20;;;;;;;;;;5088515;28;24579;-46
2022/08/01 10:30:44;;;;;;;1.88;1.77;;;;;;;;;;5089082;28;24560;-46
2022/08/01 10:33:10;;;;;;;2.10;2.00;;;;;;;;;;5089118;28;24429;-45
2022/08/01 10:35:35;;;;;;;1.90;1.80;;;;;;;;;;5088602;28;24398;-46
2022/08/01 10:38:00;;;;;;;1.60;1.50;;;;;;;;;;5088811;28;24409;-46
2022/08/01 10:40:25;;;;;;;1.80;1.70;;;;;;;;;;5088549;28;24393;-45
2022/08/01 10:42:51;;;;;;;1.60;1.50;;;;;;;;;;5088758;28;24394;-45
2022/08/01 10:45:16;;;;;;;1.70;1.60;;;;;;;;;;5088739;28;24511;-45
2022/08/01 10:47:44;;;;;;;1.40;1.40;;;;;;;;;;5089043;28;25010;-45
2022/08/01 10:50:15;;;;;;;2.65;1.70;;;;;;;;;;5088109;28;24393;-46
2022/08/01 10:52:40;;;;;;;1.50;1.50;;;;;;;;;;5088871;28;24489;-46
2022/08/01 10:55:09;;;;;;;1.50;1.40;;;;;;;;;;5088844;28;24611;-46
2022/08/01 10:57:44;;;;;;;1.40;1.30;;;;;;;;;;5088427;28;24983;-46
2022/08/01 11:00:16;;;;;;;1.73;1.30;;;;;;;;;;5088305;28;24445;-44
2022/08/01 11:02:43;;;;;;;2.80;1.50;;;;;;;;;;5088392;28;24544;-45
2022/08/01 11:05:19;;;;;;;2.60;1.50;;;;;;;;;;5088494;28;24394;-45
2022/08/01 11:07:47;;;;;;;1.50;1.40;;;;;;;;;;5088329;28;24427;-45
2022/08/01 11:10:25;;;;;;;1.90;1.50;;;;;;;;;;5088312;28;24776;-45
2022/08/01 11:12:50;;;;;;;1.10;1.10;;;;;;;;;;5088015;28;24377;-45
2022/08/01 11:15:24;;;;;;;1.00;1.00;;;;;;;;;;5088215;28;24386;-44
2022/08/01 11:17:50;;;;;;;1.80;1.02;;;;;;;;;;5088349;28;24476;-45
2022/08/01 11:20:16;;;;;;;1.13;1.08;;;;;;;;;;5085844;28;24378;-46
2022/08/01 11:23:04;;;;;;;0.90;0.90;;;;;;;;;;5088010;28;24760;-45
2022/08/01 11:25:35;;;;;;;0.90;0.90;;;;;;;;;;5087502;28;24769;-44
2022/08/01 11:28:25;;;;;;;1.10;1.00;;;;;;;;;;5087948;28;24465;-45
2022/08/01 11:30:51;;;;;;;1.10;1.00;;;;;;;;;;5088212;28;24481;-44
2022/08/01 11:33:18;;;;;;;0.93;0.80;;;;;;;;;;5087396;28;24482;-45
2022/08/01 11:36:02;;;;;;;0.80;0.77;;;;;;;;;;5087984;28;24421;-45
2022/08/01 11:38:29;;;;;;;0.98;0.98;;;;;;;;;;5087478;28;24496;-45
2022/08/01 11:41:13;;;;;;;1.10;0.85;;;;;;;;;;5085847;28;24920;-46
2022/08/01 11:44:01;;;;;;;0.90;0.90;;;;;;;;;;5087885;28;24459;-46
2022/08/01 11:46:45;;;;;;;1.20;0.80;;;;;;;;;;5084187;28;24537;-45
2022/08/01 11:49:29;;;;;;;0.90;0.90;;;;;;;;;;5087647;28;24485;-46
2022/08/01 11:51:58;;;;;;;1.00;1.00;;;;;;;;;;5086554;28;24904;-46
2022/08/01 11:54:30;;;;;;;0.90;0.90;;;;;;;;;;5087493;28;24398;-46
2022/08/01 11:56:56;;;;;;;1.27;1.17;;;;;;;;;;5087317;28;24939;-46
2022/08/01 11:59:22;;;;;;;2.90;1.30;;;;;;;;;;5087169;28;24417;-45
2022/08/01 12:01:47;;;;;;;2.92;1.45;;;;;;;;;;5087117;28;24859;-45
2022/08/01 12:04:12;;;;;;;2.00;1.50;;;;;;;;;;5087090;28;24442;-45
2022/08/01 12:06:38;;;;;;;1.88;1.70;;;;;;;;;;5086955;28;24394;-45
2022/08/01 12:09:20;;;;;;;2.10;1.60;;;;;;;;;;5087434;28;24745;-45
2022/08/01 12:11:45;;;;;;;2.20;1.50;;;;;;;;;;5087036;28;24414;-46
2022/08/01 12:14:15;;;;;;;1.50;1.40;;;;;;;;;;5086926;28;25050;-45
2022/08/01 12:16:47;;;;;;;1.60;1.50;;;;;;;;;;5087503;28;24391;-46
2022/08/01 12:19:17;;;;;;;2.00;1.60;;;;;;;;;;5086988;28;24856;-44
2022/08/01 12:21:42;;;;;;;2.83;1.60;;;;;;;;;;5087144;28;24941;-45
2022/08/01 12:24:07;;;;;;;1.70;1.50;;;;;;;;;;5086703;28;24473;-46
2022/08/01 12:26:42;;;;;;;1.40;1.30;;;;;;;;;;5086804;28;24757;-45
2022/08/01 12:29:07;;;;;;;1.63;1.52;;;;;;;;;;5087079;28;24451;-45
2022/08/01 12:31:33;;;;;;;1.50;1.40;;;;;;;;;;5086527;28;24390;-45
2022/08/01 12:33:58;;;;;;;1.63;1.53;;;;;;;;;;5086838;28;24476;-45
2022/08/01 12:36:27;;;;;;;1.30;1.20;;;;;;;;;;5086971;28;24397;-45
2022/08/01 12:38:52;;;;;;;1.60;1.50;;;;;;;;;;5087211;28;24551;-45
2022/08/01 12:41:17;;;;;;;1.73;1.40;;;;;;;;;;5086295;28;24489;-46
2022/08/01 12:43:43;;;;;;;1.50;1.30;;;;;;;;;;5087136;28;24480;-46
2022/08/01 12:46:11;;;;;;;1.50;1.40;;;;;;;;;;5086524;28;24378;-45
2022/08/01 12:48:38;;;;;;;2.10;1.40;;;;;;;;;;5086664;28;24433;-45
2022/08/01 12:51:03;;;;;;;1.55;1.30;;;;;;;;;;5086838;28;24540;-44
2022/08/01 12:53:28;;;;;;;1.60;1.50;;;;;;;;;;5086318;28;24964;-45
2022/08/01 12:55:54;;;;;;;1.30;1.20;;;;;;;;;;5086797;28;24695;-45
2022/08/01 12:58:21;;;;;;;1.40;1.30;;;;;;;;;;5086437;28;24398;-44
2022/08/01 13:00:47;;;;;;;1.40;1.17;;;;;;;;;;5085829;28;25075;-45
2022/08/01 13:03:15;;;;;;;1.20;1.10;;;;;;;;;;5087024;28;24414;-44
2022/08/01 13:05:41;;;;;;;1.33;1.23;;;;;;;;;;5090494;28;24927;-45
2022/08/01 13:08:09;;;;;;;1.60;1.50;;;;;;;;;;5090610;28;24588;-46
2022/08/01 13:10:34;;;;;;;1.40;1.30;;;;;;;;;;5090398;28;24733;-46
2022/08/01 13:12:59;;;;;;;1.70;1.60;;;;;;;;;;5090458;28;24460;-45
2022/08/01 13:15:31;;;;;;;2.33;1.40;;;;;;;;;;5090291;28;24940;-45
2022/08/01 13:17:57;;;;;;;1.20;1.20;;;;;;;;;;5090761;28;25081;-45
2022/08/01 13:20:32;;;;;;;1.38;1.27;;;;;;;;;;5090552;28;24501;-46
2022/08/01 13:23:10;;;;;;;1.50;1.40;;;;;;;;;;5090659;28;24414;-46
2022/08/01 13:25:46;;;;;;;1.70;1.20;;;;;;;;;;5090407;28;25011;-45
2022/08/01 13:28:14;;;;;;;2.47;1.35;;;;;;;;;;5090136;28;24426;-45
2022/08/01 13:30:39;;;;;;;1.10;1.00;;;;;;;;;;5090028;28;24406;-46
2022/08/01 13:33:04;;;;;;;0.90;0.90;;;;;;;;;;5089490;28;24398;-46
2022/08/01 13:35:29;;;;;;;1.30;1.20;;;;;;;;;;5090400;28;25017;-45
2022/08/01 13:37:56;;;;;;;0.80;0.80;;;;;;;;;;5090037;28;24398;-45
2022/08/01 13:40:25;;;;;;;1.10;0.90;;;;;;;;;;5089783;28;24405;-46
2022/08/01 13:42:50;;;;;;;0.90;0.90;;;;;;;;;;5090234;28;24600;-45
2022/08/01 13:45:16;;;;;;;0.90;0.90;;;;;;;;;;5089748;28;24496;-46
2022/08/01 13:47:41;;;;;;;0.80;0.70;;;;;;;;;;5089663;28;24514;-45
2022/08/01 13:50:07;;;;;;;0.90;0.70;;;;;;;;;;5090299;28;24501;-44
2022/08/01 13:52:32;;;;;;;1.00;0.90;;;;;;;;;;5089368;28;25030;-46
2022/08/01 13:54:57;;;;;;;1.40;0.90;;;;;;;;;;5089829;28;24805;-45
2022/08/01 13:57:23;;;;;;;1.70;0.90;;;;;;;;;;5089790;28;24390;-44
2022/08/01 13:59:48;;;;;;;1.10;1.00;;;;;;;;;;5089810;28;24563;-45
2022/08/01 14:02:13;;;;;;;1.10;1.10;;;;;;;;;;5089090;28;24399;-45
2022/08/01 14:04:38;;;;;;;1.40;1.10;;;;;;;;;;5089665;28;24495;-45
2022/08/01 14:07:03;;;;;;;1.02;1.02;;;;;;;;;;5089550;28;24434;-46
2022/08/01 14:09:29;;;;;;;1.00;1.00;;;;;;;;;;5089466;28;24394;-46
2022/08/01 14:11:54;;;;;;;1.20;1.10;;;;;;;;;;5089076;28;24410;-45
2022/08/01 14:14:19;;;;;;;1.00;1.00;;;;;;;;;;5089326;28;24402;-45
2022/08/01 14:16:47;;;;;;;0.90;0.90;;;;;;;;;;5088580;28;24425;-45
2022/08/01 14:19:12;;;;;;;1.00;1.00;;;;;;;;;;5089106;28;24449;-46
2022/08/01 14:21:38;;;;;;;1.40;1.20;;;;;;;;;;5089075;28;24425;-46
2022/08/01 14:24:03;;;;;;;1.20;1.10;;;;;;;;;;5089175;28;24431;-47
2022/08/01 14:26:28;;;;;;;1.43;1.33;;;;;;;;;;5089268;28;24402;-46
2022/08/01 14:28:53;;;;;;;1.13;1.00;;;;;;;;;;5089009;28;24453;-45
2022/08/01 14:31:18;;;;;;;1.30;1.20;;;;;;;;;;5088923;28;24409;-45
2022/08/01 14:33:43;;;;;;;1.47;1.37;;;;;;;;;;5089226;28;24981;-45
2022/08/01 14:36:08;;;;;;;1.27;1.20;;;;;;;;;;5088847;28;24393;-46
2022/08/01 14:38:34;;;;;;;1.50;1.40;;;;;;;;;;5088941;28;24402;-46
2022/08/01 14:40:59;;;;;;;1.50;1.40;;;;;;;;;;5089083;28;24397;-46
2022/08/01 14:43:25;;;;;;;1.40;1.30;;;;;;;;;;5088614;28;24928;-45
2022/08/01 14:45:51;;;;;;;1.00;1.00;;;;;;;;;;5088971;28;24507;-46